createdAt,value
2023-01-08T00:00:49.380Z,22.00
2023-01-08T00:15:50.890Z,22.00
2023-01-08T00:30:52.461Z,22.00
2023-01-08T00:45:54.272Z,22.00
2023-01-08T01:00:55.889Z,21.90
2023-01-08T01:15:57.411Z,21.90
2023-01-08T01:31:02.547Z,21.90
2023-01-08T01:46:04.237Z,21.90
2023-01-08T02:01:05.807Z,21.80
2023-01-08T02:16:07.365Z,21.90
2023-01-08T02:31:08.934Z,21.90
2023-01-08T02:46:10.508Z,21.80
2023-01-08T03:01:12.133Z,21.80
2023-01-08T03:16:13.747Z,21.80
2023-01-08T03:31:15.333Z,21.70
2023-01-08T03:46:17.070Z,21.70
2023-01-08T04:01:18.656Z,21.70
2023-01-08T04:16:20.334Z,21.80
2023-01-08T04:31:21.981Z,21.70
2023-01-08T04:46:23.563Z,21.70
2023-01-08T05:01:25.294Z,21.70
2023-01-08T05:16:28.067Z,21.70
2023-01-08T05:31:29.633Z,21.70
2023-01-08T05:46:31.262Z,21.70
2023-01-08T06:01:32.880Z,21.60
2023-01-08T06:16:34.396Z,21.70
2023-01-08T06:31:35.955Z,21.70
2023-01-08T06:46:37.672Z,21.60
2023-01-08T07:01:39.360Z,21.70
2023-01-08T07:16:40.943Z,21.70
2023-01-08T07:31:42.472Z,21.70
2023-01-08T07:46:43.990Z,21.70
2023-01-08T08:01:45.519Z,21.60
2023-01-08T08:16:47.063Z,21.70
2023-01-08T08:31:48.514Z,21.70
2023-01-08T08:46:50.028Z,21.80
2023-01-08T09:01:51.704Z,21.90
2023-01-08T09:16:53.308Z,22.10
2023-01-08T09:31:54.839Z,22.30
2023-01-08T09:46:56.431Z,22.40
2023-01-08T10:01:58.357Z,22.40
2023-01-08T10:16:59.921Z,22.40
2023-01-08T10:32:01.401Z,22.40
2023-01-08T10:47:02.875Z,22.50
2023-01-08T11:02:04.458Z,22.50
2023-01-08T11:17:06.021Z,22.60
2023-01-08T11:32:07.590Z,23.30
2023-01-08T11:47:09.046Z,24.40
2023-01-08T12:02:10.540Z,24.50
2023-01-08T12:17:12.072Z,24.40
2023-01-08T12:32:13.685Z,26.30
2023-01-08T12:47:15.172Z,28.00
2023-01-08T13:02:16.712Z,29.30
2023-01-08T13:17:18.261Z,27.90
2023-01-08T13:32:27.030Z,27.90
2023-01-08T13:47:28.917Z,27.80
2023-01-08T14:02:30.536Z,26.60
2023-01-08T14:17:32.057Z,26.20
2023-01-08T14:32:33.521Z,25.70
2023-01-08T14:47:34.992Z,25.30
2023-01-08T15:02:36.605Z,25.00
2023-01-08T15:17:38.143Z,24.80
2023-01-08T15:32:39.688Z,24.50
2023-01-08T15:47:41.170Z,24.30
2023-01-08T16:02:44.908Z,24.10
2023-01-08T16:17:47.806Z,23.80
2023-01-08T16:32:49.312Z,23.60
2023-01-08T16:47:50.789Z,23.40
2023-01-08T17:02:52.254Z,23.30
2023-01-08T17:17:53.707Z,23.30
2023-01-08T17:32:55.173Z,23.10
2023-01-08T17:47:56.650Z,23.00
2023-01-08T18:02:58.130Z,22.90
2023-01-08T18:17:59.677Z,22.80
2023-01-08T18:33:01.154Z,22.80
2023-01-08T18:48:02.651Z,22.80
2023-01-08T19:03:04.118Z,22.70
2023-01-08T19:18:05.606Z,22.60
2023-01-08T19:33:07.069Z,22.50
2023-01-08T19:48:08.548Z,22.50
2023-01-08T20:03:10.036Z,22.40
2023-01-08T20:18:11.524Z,22.50
2023-01-08T20:33:15.433Z,22.40
2023-01-08T20:48:19.151Z,22.40
2023-01-08T21:03:20.646Z,22.40
2023-01-08T21:18:22.127Z,22.30
2023-01-08T21:33:23.593Z,22.30
2023-01-08T21:48:25.067Z,22.30
2023-01-08T22:03:26.532Z,22.30
2023-01-08T22:18:27.995Z,22.30
2023-01-08T22:33:29.465Z,22.30
2023-01-08T22:48:30.930Z,22.20
2023-01-08T23:03:32.411Z,22.20
2023-01-08T23:18:33.912Z,22.20
2023-01-08T23:33:35.385Z,22.10
2023-01-08T23:48:36.847Z,22.10
